sensor_id;sensor_type;location;lat;lon;timestamp;temperature;humidity
41630;DHT22;27322;49.488;8.480;2023-03-23T00:02:02;15.60;96.90
41630;DHT22;27322;49.488;8.480;2023-03-23T00:04:28;15.50;97.00
41630;DHT22;27322;49.488;8.480;2023-03-23T00:06:57;15.50;97.20
41630;DHT22;27322;49.488;8.480;2023-03-23T00:09:22;15.50;97.20
41630;DHT22;27322;49.488;8.480;2023-03-23T00:11:49;15.50;97.70
41630;DHT22;27322;49.488;8.480;2023-03-23T00:14:16;15.50;97.60
41630;DHT22;27322;49.488;8.480;2023-03-23T00:16:42;15.50;97.40
41630;DHT22;27322;49.488;8.480;2023-03-23T00:19:12;15.50;97.70
41630;DHT22;27322;49.488;8.480;2023-03-23T00:21:42;15.50;97.90
41630;DHT22;27322;49.488;8.480;2023-03-23T00:26:35;15.50;97.80
41630;DHT22;27322;49.488;8.480;2023-03-23T00:29:07;15.50;98.20
41630;DHT22;27322;49.488;8.480;2023-03-23T00:31:32;15.50;98.20
41630;DHT22;27322;49.488;8.480;2023-03-23T00:34:01;15.50;98.20
41630;DHT22;27322;49.488;8.480;2023-03-23T00:36:30;15.50;97.80
41630;DHT22;27322;49.488;8.480;2023-03-23T00:38:56;15.50;97.70
41630;DHT22;27322;49.488;8.480;2023-03-23T00:41:26;15.50;97.60
41630;DHT22;27322;49.488;8.480;2023-03-23T00:43:57;15.50;97.60
41630;DHT22;27322;49.488;8.480;2023-03-23T00:46:24;15.50;97.40
41630;DHT22;27322;49.488;8.480;2023-03-23T00:48:50;15.50;97.60
41630;DHT22;27322;49.488;8.480;2023-03-23T00:51:17;15.50;97.90
41630;DHT22;27322;49.488;8.480;2023-03-23T00:53:43;15.50;97.40
41630;DHT22;27322;49.488;8.480;2023-03-23T00:56:09;15.50;97.30
41630;DHT22;27322;49.488;8.480;2023-03-23T00:58:35;15.50;97.30
41630;DHT22;27322;49.488;8.480;2023-03-23T01:01:01;15.50;97.20
41630;DHT22;27322;49.488;8.480;2023-03-23T01:03:27;15.50;97.10
41630;DHT22;27322;49.488;8.480;2023-03-23T01:05:54;15.50;97.00
41630;DHT22;27322;49.488;8.480;2023-03-23T01:08:21;15.50;97.10
41630;DHT22;27322;49.488;8.480;2023-03-23T01:10:47;15.50;97.20
41630;DHT22;27322;49.488;8.480;2023-03-23T01:13:14;15.50;97.40
41630;DHT22;27322;49.488;8.480;2023-03-23T01:15:40;15.50;97.60
41630;DHT22;27322;49.488;8.480;2023-03-23T01:18:07;15.40;97.70
41630;DHT22;27322;49.488;8.480;2023-03-23T01:20:35;15.50;97.60
41630;DHT22;27322;49.488;8.480;2023-03-23T01:23:01;15.40;98.00
41630;DHT22;27322;49.488;8.480;2023-03-23T01:25:31;15.40;97.60
41630;DHT22;27322;49.488;8.480;2023-03-23T01:27:58;15.40;97.40
41630;DHT22;27322;49.488;8.480;2023-03-23T01:30:24;15.40;97.40
41630;DHT22;27322;49.488;8.480;2023-03-23T01:32:50;15.40;97.30
41630;DHT22;27322;49.488;8.480;2023-03-23T01:35:16;15.40;97.20
41630;DHT22;27322;49.488;8.480;2023-03-23T01:37:42;15.40;97.30
41630;DHT22;27322;49.488;8.480;2023-03-23T01:40:09;15.40;97.40
41630;DHT22;27322;49.488;8.480;2023-03-23T01:42:37;15.40;97.50
41630;DHT22;27322;49.488;8.480;2023-03-23T01:45:30;15.40;97.10
41630;DHT22;27322;49.488;8.480;2023-03-23T01:48:00;15.40;97.40
41630;DHT22;27322;49.488;8.480;2023-03-23T01:50:28;15.40;97.30
41630;DHT22;27322;49.488;8.480;2023-03-23T01:52:57;15.30;97.50
41630;DHT22;27322;49.488;8.480;2023-03-23T01:55:25;15.30;97.60
41630;DHT22;27322;49.488;8.480;2023-03-23T01:57:52;15.30;97.90
41630;DHT22;27322;49.488;8.480;2023-03-23T02:00:19;15.30;97.90
41630;DHT22;27322;49.488;8.480;2023-03-23T02:02:48;15.30;97.70
41630;DHT22;27322;49.488;8.480;2023-03-23T02:05:21;15.30;97.90
41630;DHT22;27322;49.488;8.480;2023-03-23T02:07:50;15.30;98.10
41630;DHT22;27322;49.488;8.480;2023-03-23T02:10:16;15.30;98.40
41630;DHT22;27322;49.488;8.480;2023-03-23T02:12:42;15.30;98.40
41630;DHT22;27322;49.488;8.480;2023-03-23T02:15:07;15.30;98.60
41630;DHT22;27322;49.488;8.480;2023-03-23T02:18:00;15.30;98.60
41630;DHT22;27322;49.488;8.480;2023-03-23T02:21:03;15.30;98.70
41630;DHT22;27322;49.488;8.480;2023-03-23T02:32:45;15.20;99.20
41630;DHT22;27322;49.488;8.480;2023-03-23T02:35:21;15.20;99.40
41630;DHT22;27322;49.488;8.480;2023-03-23T02:38:00;15.20;99.40
41630;DHT22;27322;49.488;8.480;2023-03-23T02:40:36;15.20;99.70
41630;DHT22;27322;49.488;8.480;2023-03-23T02:43:07;15.10;99.80
41630;DHT22;27322;49.488;8.480;2023-03-23T02:45:34;15.10;99.70
41630;DHT22;27322;49.488;8.480;2023-03-23T02:48:03;15.10;99.70
41630;DHT22;27322;49.488;8.480;2023-03-23T02:50:30;15.10;99.80
41630;DHT22;27322;49.488;8.480;2023-03-23T02:52:57;15.10;99.90
41630;DHT22;27322;49.488;8.480;2023-03-23T02:55:25;15.10;99.90
41630;DHT22;27322;49.488;8.480;2023-03-23T02:57:52;15.10;99.90
41630;DHT22;27322;49.488;8.480;2023-03-23T03:00:19;15.10;99.90
41630;DHT22;27322;49.488;8.480;2023-03-23T03:02:56;15.10;99.90
41630;DHT22;27322;49.488;8.480;2023-03-23T03:08:15;15.10;99.90
41630;DHT22;27322;49.488;8.480;2023-03-23T03:10:54;15.00;99.90
41630;DHT22;27322;49.488;8.480;2023-03-23T03:18:47;15.00;99.90
41630;DHT22;27322;49.488;8.480;2023-03-23T03:21:14;15.00;99.90
41630;DHT22;27322;49.488;8.480;2023-03-23T03:23:44;15.00;99.90
41630;DHT22;27322;49.488;8.480;2023-03-23T03:26:11;15.00;99.90
41630;DHT22;27322;49.488;8.480;2023-03-23T03:28:38;15.00;99.90
41630;DHT22;27322;49.488;8.480;2023-03-23T03:31:05;15.00;99.90
41630;DHT22;27322;49.488;8.480;2023-03-23T03:33:32;15.00;99.90
41630;DHT22;27322;49.488;8.480;2023-03-23T03:36:03;15.00;99.90
41630;DHT22;27322;49.488;8.480;2023-03-23T03:38:41;15.00;99.90
41630;DHT22;27322;49.488;8.480;2023-03-23T03:41:06;15.00;99.90
41630;DHT22;27322;49.488;8.480;2023-03-23T03:43:32;15.00;99.90
41630;DHT22;27322;49.488;8.480;2023-03-23T03:45:58;15.10;99.90
41630;DHT22;27322;49.488;8.480;2023-03-23T03:48:23;15.10;99.90
41630;DHT22;27322;49.488;8.480;2023-03-23T03:50:49;15.10;99.90
41630;DHT22;27322;49.488;8.480;2023-03-23T03:53:17;15.10;99.90
41630;DHT22;27322;49.488;8.480;2023-03-23T03:55:43;15.20;99.90
41630;DHT22;27322;49.488;8.480;2023-03-23T03:58:10;15.20;99.90
41630;DHT22;27322;49.488;8.480;2023-03-23T04:00:36;15.20;99.90
41630;DHT22;27322;49.488;8.480;2023-03-23T04:03:01;15.20;99.90
41630;DHT22;27322;49.488;8.480;2023-03-23T04:05:27;15.20;99.90
41630;DHT22;27322;49.488;8.480;2023-03-23T04:07:54;15.20;99.90
41630;DHT22;27322;49.488;8.480;2023-03-23T04:10:26;15.20;99.90
41630;DHT22;27322;49.488;8.480;2023-03-23T04:12:53;15.20;99.90
41630;DHT22;27322;49.488;8.480;2023-03-23T04:15:19;15.20;99.90
41630;DHT22;27322;49.488;8.480;2023-03-23T04:17:44;15.20;99.90
41630;DHT22;27322;49.488;8.480;2023-03-23T04:20:11;15.30;99.90
41630;DHT22;27322;49.488;8.480;2023-03-23T04:22:44;15.30;99.90
41630;DHT22;27322;49.488;8.480;2023-03-23T04:25:11;15.30;99.90
41630;DHT22;27322;49.488;8.480;2023-03-23T04:27:41;15.30;99.90
41630;DHT22;27322;49.488;8.480;2023-03-23T04:30:12;15.30;99.90
41630;DHT22;27322;49.488;8.480;2023-03-23T04:32:41;15.30;99.90
41630;DHT22;27322;49.488;8.480;2023-03-23T04:35:09;15.20;99.90
41630;DHT22;27322;49.488;8.480;2023-03-23T04:37:37;15.20;99.90
41630;DHT22;27322;49.488;8.480;2023-03-23T04:40:04;15.20;99.90
41630;DHT22;27322;49.488;8.480;2023-03-23T04:42:34;15.20;99.90
41630;DHT22;27322;49.488;8.480;2023-03-23T04:45:00;15.20;99.90
41630;DHT22;27322;49.488;8.480;2023-03-23T04:47:27;15.20;99.90
41630;DHT22;27322;49.488;8.480;2023-03-23T04:49:57;15.20;99.90
41630;DHT22;27322;49.488;8.480;2023-03-23T04:52:25;15.10;99.90
41630;DHT22;27322;49.488;8.480;2023-03-23T04:54:51;15.10;99.90
41630;DHT22;27322;49.488;8.480;2023-03-23T04:57:18;15.10;99.90
41630;DHT22;27322;49.488;8.480;2023-03-23T04:59:43;15.00;99.90
41630;DHT22;27322;49.488;8.480;2023-03-23T05:02:12;15.00;99.90
41630;DHT22;27322;49.488;8.480;2023-03-23T05:04:39;14.90;99.90
41630;DHT22;27322;49.488;8.480;2023-03-23T05:07:07;14.90;99.90
41630;DHT22;27322;49.488;8.480;2023-03-23T05:09:33;14.90;99.90
41630;DHT22;27322;49.488;8.480;2023-03-23T05:12:07;14.90;99.90
41630;DHT22;27322;49.488;8.480;2023-03-23T05:14:33;14.80;99.90
41630;DHT22;27322;49.488;8.480;2023-03-23T05:16:59;14.80;99.90
41630;DHT22;27322;49.488;8.480;2023-03-23T05:19:24;14.80;99.90
41630;DHT22;27322;49.488;8.480;2023-03-23T05:21:50;14.80;99.90
41630;DHT22;27322;49.488;8.480;2023-03-23T05:24:15;14.80;99.90
41630;DHT22;27322;49.488;8.480;2023-03-23T05:26:41;14.90;99.90
41630;DHT22;27322;49.488;8.480;2023-03-23T05:29:07;14.80;99.90
41630;DHT22;27322;49.488;8.480;2023-03-23T05:31:32;14.90;99.90
41630;DHT22;27322;49.488;8.480;2023-03-23T05:33:58;14.90;99.90
41630;DHT22;27322;49.488;8.480;2023-03-23T05:36:23;14.90;99.90
41630;DHT22;27322;49.488;8.480;2023-03-23T05:38:52;14.90;99.90
41630;DHT22;27322;49.488;8.480;2023-03-23T05:41:18;14.90;99.90
41630;DHT22;27322;49.488;8.480;2023-03-23T05:43:44;14.90;99.90
41630;DHT22;27322;49.488;8.480;2023-03-23T05:46:09;14.90;99.90
41630;DHT22;27322;49.488;8.480;2023-03-23T05:48:35;14.90;99.90
41630;DHT22;27322;49.488;8.480;2023-03-23T05:51:02;14.90;99.90
41630;DHT22;27322;49.488;8.480;2023-03-23T05:53:28;14.90;99.90
41630;DHT22;27322;49.488;8.480;2023-03-23T05:55:58;14.90;99.90
41630;DHT22;27322;49.488;8.480;2023-03-23T05:58:25;14.90;99.90
41630;DHT22;27322;49.488;8.480;2023-03-23T06:00:50;14.90;99.90
41630;DHT22;27322;49.488;8.480;2023-03-23T06:03:16;14.90;99.90
41630;DHT22;27322;49.488;8.480;2023-03-23T06:05:43;14.90;99.90
41630;DHT22;27322;49.488;8.480;2023-03-23T06:08:09;14.90;99.90
41630;DHT22;27322;49.488;8.480;2023-03-23T06:10:35;14.90;99.90
41630;DHT22;27322;49.488;8.480;2023-03-23T06:13:02;14.80;99.90
41630;DHT22;27322;49.488;8.480;2023-03-23T06:15:27;14.80;99.90
41630;DHT22;27322;49.488;8.480;2023-03-23T06:18:01;14.80;99.90
41630;DHT22;27322;49.488;8.480;2023-03-23T06:20:28;14.80;99.90
41630;DHT22;27322;49.488;8.480;2023-03-23T06:22:54;14.80;99.90
41630;DHT22;27322;49.488;8.480;2023-03-23T06:25:21;14.90;99.90
41630;DHT22;27322;49.488;8.480;2023-03-23T06:27:47;14.80;99.90
41630;DHT22;27322;49.488;8.480;2023-03-23T06:30:13;14.90;99.90
41630;DHT22;27322;49.488;8.480;2023-03-23T06:32:41;14.80;99.90
41630;DHT22;27322;49.488;8.480;2023-03-23T06:35:09;14.90;99.90
41630;DHT22;27322;49.488;8.480;2023-03-23T06:37:35;14.90;99.90
41630;DHT22;27322;49.488;8.480;2023-03-23T06:40:02;14.80;99.90
41630;DHT22;27322;49.488;8.480;2023-03-23T06:42:30;14.80;99.90
41630;DHT22;27322;49.488;8.480;2023-03-23T06:44:55;14.80;99.90
41630;DHT22;27322;49.488;8.480;2023-03-23T06:47:23;14.80;99.90
41630;DHT22;27322;49.488;8.480;2023-03-23T06:49:49;14.80;99.90
41630;DHT22;27322;49.488;8.480;2023-03-23T06:52:14;14.80;99.90
41630;DHT22;27322;49.488;8.480;2023-03-23T06:54:40;14.90;99.90
41630;DHT22;27322;49.488;8.480;2023-03-23T06:57:06;14.80;99.90
41630;DHT22;27322;49.488;8.480;2023-03-23T06:59:32;14.90;99.90
41630;DHT22;27322;49.488;8.480;2023-03-23T07:01:58;14.90;99.90
41630;DHT22;27322;49.488;8.480;2023-03-23T07:04:23;14.90;99.90
41630;DHT22;27322;49.488;8.480;2023-03-23T07:06:49;14.80;99.90
41630;DHT22;27322;49.488;8.480;2023-03-23T07:09:15;14.90;99.90
41630;DHT22;27322;49.488;8.480;2023-03-23T07:11:41;14.90;99.90
41630;DHT22;27322;49.488;8.480;2023-03-23T07:14:06;14.80;99.90
41630;DHT22;27322;49.488;8.480;2023-03-23T07:16:32;14.90;99.90
41630;DHT22;27322;49.488;8.480;2023-03-23T07:18:59;14.90;99.90
41630;DHT22;27322;49.488;8.480;2023-03-23T07:21:25;14.90;99.90
41630;DHT22;27322;49.488;8.480;2023-03-23T07:23:51;14.90;99.90
41630;DHT22;27322;49.488;8.480;2023-03-23T07:26:17;14.90;99.90
41630;DHT22;27322;49.488;8.480;2023-03-23T07:28:43;14.90;99.90
41630;DHT22;27322;49.488;8.480;2023-03-23T07:31:08;14.90;99.90
41630;DHT22;27322;49.488;8.480;2023-03-23T07:33:35;14.90;99.90
41630;DHT22;27322;49.488;8.480;2023-03-23T07:36:01;14.90;99.90
41630;DHT22;27322;49.488;8.480;2023-03-23T07:38:27;14.90;99.90
41630;DHT22;27322;49.488;8.480;2023-03-23T07:40:54;14.90;99.90
41630;DHT22;27322;49.488;8.480;2023-03-23T07:43:19;14.90;99.90
41630;DHT22;27322;49.488;8.480;2023-03-23T07:45:46;14.90;99.90
41630;DHT22;27322;49.488;8.480;2023-03-23T07:48:12;14.90;99.90
41630;DHT22;27322;49.488;8.480;2023-03-23T07:50:37;14.90;99.90
41630;DHT22;27322;49.488;8.480;2023-03-23T07:53:03;14.90;99.90
41630;DHT22;27322;49.488;8.480;2023-03-23T07:55:29;14.90;99.90
41630;DHT22;27322;49.488;8.480;2023-03-23T07:57:55;14.90;99.90
41630;DHT22;27322;49.488;8.480;2023-03-23T08:00:22;14.90;99.90
41630;DHT22;27322;49.488;8.480;2023-03-23T08:02:51;14.80;99.90
41630;DHT22;27322;49.488;8.480;2023-03-23T08:05:18;14.80;99.90
41630;DHT22;27322;49.488;8.480;2023-03-23T08:07:44;14.80;99.90
41630;DHT22;27322;49.488;8.480;2023-03-23T08:10:11;14.80;99.90
41630;DHT22;27322;49.488;8.480;2023-03-23T08:12:38;14.80;99.90
41630;DHT22;27322;49.488;8.480;2023-03-23T08:15:05;14.80;99.90
41630;DHT22;27322;49.488;8.480;2023-03-23T08:17:32;14.80;99.90
41630;DHT22;27322;49.488;8.480;2023-03-23T08:20:00;14.80;99.90
41630;DHT22;27322;49.488;8.480;2023-03-23T08:22:26;14.70;99.90
41630;DHT22;27322;49.488;8.480;2023-03-23T08:24:54;14.80;99.90
41630;DHT22;27322;49.488;8.480;2023-03-23T08:27:20;14.80;99.90
41630;DHT22;27322;49.488;8.480;2023-03-23T08:29:45;14.70;99.90
41630;DHT22;27322;49.488;8.480;2023-03-23T08:32:12;14.70;99.90
41630;DHT22;27322;49.488;8.480;2023-03-23T08:34:37;14.70;99.90
41630;DHT22;27322;49.488;8.480;2023-03-23T08:37:04;14.70;99.90
41630;DHT22;27322;49.488;8.480;2023-03-23T08:39:30;14.70;99.90
41630;DHT22;27322;49.488;8.480;2023-03-23T08:41:56;14.70;99.90
41630;DHT22;27322;49.488;8.480;2023-03-23T08:44:22;14.70;99.90
41630;DHT22;27322;49.488;8.480;2023-03-23T08:46:47;14.70;99.90
41630;DHT22;27322;49.488;8.480;2023-03-23T08:49:13;14.70;99.90
41630;DHT22;27322;49.488;8.480;2023-03-23T08:51:39;14.70;99.90
41630;DHT22;27322;49.488;8.480;2023-03-23T08:54:06;14.70;99.90
41630;DHT22;27322;49.488;8.480;2023-03-23T08:56:32;14.70;99.90
41630;DHT22;27322;49.488;8.480;2023-03-23T08:58:58;14.70;99.90
41630;DHT22;27322;49.488;8.480;2023-03-23T09:01:24;14.70;99.90
41630;DHT22;27322;49.488;8.480;2023-03-23T09:03:50;14.60;99.90
41630;DHT22;27322;49.488;8.480;2023-03-23T09:06:16;14.60;99.90
41630;DHT22;27322;49.488;8.480;2023-03-23T09:08:41;14.60;99.90
41630;DHT22;27322;49.488;8.480;2023-03-23T09:11:09;14.60;99.90
41630;DHT22;27322;49.488;8.480;2023-03-23T09:13:36;14.60;99.90
41630;DHT22;27322;49.488;8.480;2023-03-23T09:16:03;14.60;99.90
41630;DHT22;27322;49.488;8.480;2023-03-23T09:18:29;14.60;99.90
41630;DHT22;27322;49.488;8.480;2023-03-23T09:20:56;14.60;99.90
41630;DHT22;27322;49.488;8.480;2023-03-23T09:23:22;14.70;99.90
41630;DHT22;27322;49.488;8.480;2023-03-23T09:25:48;14.70;99.90
41630;DHT22;27322;49.488;8.480;2023-03-23T09:28:14;14.70;99.90
41630;DHT22;27322;49.488;8.480;2023-03-23T09:30:40;14.70;99.90
41630;DHT22;27322;49.488;8.480;2023-03-23T09:33:06;14.80;99.90
41630;DHT22;27322;49.488;8.480;2023-03-23T09:35:33;14.80;99.90
41630;DHT22;27322;49.488;8.480;2023-03-23T09:38:01;14.90;99.90
41630;DHT22;27322;49.488;8.480;2023-03-23T09:46:13;15.00;99.90
41630;DHT22;27322;49.488;8.480;2023-03-23T09:54:01;15.00;99.90
41630;DHT22;27322;49.488;8.480;2023-03-23T09:56:31;15.00;99.90
41630;DHT22;27322;49.488;8.480;2023-03-23T10:01:55;14.90;99.90
41630;DHT22;27322;49.488;8.480;2023-03-23T10:04:34;14.90;99.90
41630;DHT22;27322;49.488;8.480;2023-03-23T10:07:22;14.90;99.90
41630;DHT22;27322;49.488;8.480;2023-03-23T10:09:52;14.90;99.90
41630;DHT22;27322;49.488;8.480;2023-03-23T10:12:37;14.90;99.90
41630;DHT22;27322;49.488;8.480;2023-03-23T10:17:37;15.00;99.90
41630;DHT22;27322;49.488;8.480;2023-03-23T10:22:45;15.00;99.90
41630;DHT22;27322;49.488;8.480;2023-03-23T10:30:37;15.00;99.90
41630;DHT22;27322;49.488;8.480;2023-03-23T10:36:30;15.00;99.90
41630;DHT22;27322;49.488;8.480;2023-03-23T10:39:13;15.10;99.90
41630;DHT22;27322;49.488;8.480;2023-03-23T10:41:39;15.10;99.90
41630;DHT22;27322;49.488;8.480;2023-03-23T10:44:18;15.20;99.90
41630;DHT22;27322;49.488;8.480;2023-03-23T10:47:00;15.20;99.90
41630;DHT22;27322;49.488;8.480;2023-03-23T10:49:58;15.30;99.90
41630;DHT22;27322;49.488;8.480;2023-03-23T10:55:14;15.40;99.90
41630;DHT22;27322;49.488;8.480;2023-03-23T10:57:44;15.40;99.90
41630;DHT22;27322;49.488;8.480;2023-03-23T11:00:22;15.50;99.90
41630;DHT22;27322;49.488;8.480;2023-03-23T11:05:41;15.40;99.90
41630;DHT22;27322;49.488;8.480;2023-03-23T11:08:15;15.40;99.90
41630;DHT22;27322;49.488;8.480;2023-03-23T11:10:54;15.30;99.90
41630;DHT22;27322;49.488;8.480;2023-03-23T11:13:22;15.30;99.90
41630;DHT22;27322;49.488;8.480;2023-03-23T11:15:49;15.40;99.90
41630;DHT22;27322;49.488;8.480;2023-03-23T11:18:18;15.30;99.90
41630;DHT22;27322;49.488;8.480;2023-03-23T11:20:47;15.30;99.90
41630;DHT22;27322;49.488;8.480;2023-03-23T11:23:26;15.30;99.90
41630;DHT22;27322;49.488;8.480;2023-03-23T11:26:14;15.30;99.90
41630;DHT22;27322;49.488;8.480;2023-03-23T11:29:10;15.30;99.90
41630;DHT22;27322;49.488;8.480;2023-03-23T11:34:25;15.30;99.90
41630;DHT22;27322;49.488;8.480;2023-03-23T11:36:55;15.30;99.90
41630;DHT22;27322;49.488;8.480;2023-03-23T11:39:32;15.30;99.90
41630;DHT22;27322;49.488;8.480;2023-03-23T11:42:12;15.30;99.90
41630;DHT22;27322;49.488;8.480;2023-03-23T11:44:42;15.30;99.90
41630;DHT22;27322;49.488;8.480;2023-03-23T11:47:33;15.30;99.90
41630;DHT22;27322;49.488;8.480;2023-03-23T11:50:20;15.40;99.90
41630;DHT22;27322;49.488;8.480;2023-03-23T11:52:58;15.40;99.90
41630;DHT22;27322;49.488;8.480;2023-03-23T11:55:35;15.30;99.90
41630;DHT22;27322;49.488;8.480;2023-03-23T11:58:09;15.40;99.90
41630;DHT22;27322;49.488;8.480;2023-03-23T12:00:37;15.30;99.90
41630;DHT22;27322;49.488;8.480;2023-03-23T12:06:10;15.30;99.90
41630;DHT22;27322;49.488;8.480;2023-03-23T12:17:44;15.40;99.90
41630;DHT22;27322;49.488;8.480;2023-03-23T12:20:34;15.40;99.90
41630;DHT22;27322;49.488;8.480;2023-03-23T12:23:24;15.40;99.90
41630;DHT22;27322;49.488;8.480;2023-03-23T12:26:23;15.40;99.90
41630;DHT22;27322;49.488;8.480;2023-03-23T12:29:12;15.40;99.90
41630;DHT22;27322;49.488;8.480;2023-03-23T12:32:08;15.50;99.90
41630;DHT22;27322;49.488;8.480;2023-03-23T12:34:51;15.50;99.90
41630;DHT22;27322;49.488;8.480;2023-03-23T12:46:06;15.60;99.90
41630;DHT22;27322;49.488;8.480;2023-03-23T12:48:41;15.60;99.90
41630;DHT22;27322;49.488;8.480;2023-03-23T12:51:29;15.60;99.90
41630;DHT22;27322;49.488;8.480;2023-03-23T12:56:49;15.60;99.90
41630;DHT22;27322;49.488;8.480;2023-03-23T13:02:11;15.60;99.90
41630;DHT22;27322;49.488;8.480;2023-03-23T13:04:42;15.60;99.90
41630;DHT22;27322;49.488;8.480;2023-03-23T13:07:14;15.70;99.90
41630;DHT22;27322;49.488;8.480;2023-03-23T13:10:03;15.70;99.90
41630;DHT22;27322;49.488;8.480;2023-03-23T13:12:30;15.70;99.90
41630;DHT22;27322;49.488;8.480;2023-03-23T13:20:56;15.70;99.90
41630;DHT22;27322;49.488;8.480;2023-03-23T13:23:27;15.70;99.90
41630;DHT22;27322;49.488;8.480;2023-03-23T13:26:05;15.70;99.90
41630;DHT22;27322;49.488;8.480;2023-03-23T13:28:47;15.70;99.90
41630;DHT22;27322;49.488;8.480;2023-03-23T13:31:16;15.70;99.90
41630;DHT22;27322;49.488;8.480;2023-03-23T13:33:53;15.70;99.90
41630;DHT22;27322;49.488;8.480;2023-03-23T13:36:30;15.70;99.90
41630;DHT22;27322;49.488;8.480;2023-03-23T13:38:58;15.70;99.90
41630;DHT22;27322;49.488;8.480;2023-03-23T13:41:25;15.70;99.90
41630;DHT22;27322;49.488;8.480;2023-03-23T13:43:54;15.70;99.90
41630;DHT22;27322;49.488;8.480;2023-03-23T13:46:30;15.70;99.90
41630;DHT22;27322;49.488;8.480;2023-03-23T13:56:48;15.60;99.90
41630;DHT22;27322;49.488;8.480;2023-03-23T14:01:55;15.60;99.90
41630;DHT22;27322;49.488;8.480;2023-03-23T14:04:23;15.60;99.90
41630;DHT22;27322;49.488;8.480;2023-03-23T14:06:57;15.60;99.90
41630;DHT22;27322;49.488;8.480;2023-03-23T14:09:33;15.60;99.90
41630;DHT22;27322;49.488;8.480;2023-03-23T14:12:05;15.60;99.90
41630;DHT22;27322;49.488;8.480;2023-03-23T14:14:40;15.60;99.90
41630;DHT22;27322;49.488;8.480;2023-03-23T14:17:13;15.60;99.90
41630;DHT22;27322;49.488;8.480;2023-03-23T14:19:41;15.60;99.90
41630;DHT22;27322;49.488;8.480;2023-03-23T14:24:48;15.70;99.90
41630;DHT22;27322;49.488;8.480;2023-03-23T14:27:17;15.70;99.90
41630;DHT22;27322;49.488;8.480;2023-03-23T14:29:44;15.70;99.90
41630;DHT22;27322;49.488;8.480;2023-03-23T14:32:18;15.70;99.90
41630;DHT22;27322;49.488;8.480;2023-03-23T14:34:51;15.70;99.90
41630;DHT22;27322;49.488;8.480;2023-03-23T14:37:17;15.70;99.90
41630;DHT22;27322;49.488;8.480;2023-03-23T14:39:53;15.70;99.90
41630;DHT22;27322;49.488;8.480;2023-03-23T14:42:30;15.70;99.90
41630;DHT22;27322;49.488;8.480;2023-03-23T14:44:57;15.80;99.90
41630;DHT22;27322;49.488;8.480;2023-03-23T14:47:31;15.70;99.90
41630;DHT22;27322;49.488;8.480;2023-03-23T14:50:00;15.70;99.90
41630;DHT22;27322;49.488;8.480;2023-03-23T14:52:29;15.70;99.90
41630;DHT22;27322;49.488;8.480;2023-03-23T14:55:15;15.80;99.90
41630;DHT22;27322;49.488;8.480;2023-03-23T14:57:42;15.80;99.90
41630;DHT22;27322;49.488;8.480;2023-03-23T15:00:16;15.70;99.90
41630;DHT22;27322;49.488;8.480;2023-03-23T15:02:45;15.70;99.90
41630;DHT22;27322;49.488;8.480;2023-03-23T15:05:15;15.70;99.90
41630;DHT22;27322;49.488;8.480;2023-03-23T15:07:45;15.70;99.90
41630;DHT22;27322;49.488;8.480;2023-03-23T15:10:19;15.70;99.90
41630;DHT22;27322;49.488;8.480;2023-03-23T15:12:47;15.70;99.90
41630;DHT22;27322;49.488;8.480;2023-03-23T15:15:23;15.70;99.90
41630;DHT22;27322;49.488;8.480;2023-03-23T15:17:50;15.70;99.90
41630;DHT22;27322;49.488;8.480;2023-03-23T15:20:25;15.60;99.90
41630;DHT22;27322;49.488;8.480;2023-03-23T15:22:51;15.70;99.90
41630;DHT22;27322;49.488;8.480;2023-03-23T15:25:23;15.70;99.90
41630;DHT22;27322;49.488;8.480;2023-03-23T15:28:06;15.70;99.90
41630;DHT22;27322;49.488;8.480;2023-03-23T15:30:52;15.70;99.90
41630;DHT22;27322;49.488;8.480;2023-03-23T15:33:19;15.70;99.90
41630;DHT22;27322;49.488;8.480;2023-03-23T15:35:52;15.60;99.90
41630;DHT22;27322;49.488;8.480;2023-03-23T15:38:30;15.60;99.90
41630;DHT22;27322;49.488;8.480;2023-03-23T15:41:01;15.70;99.90
41630;DHT22;27322;49.488;8.480;2023-03-23T15:43:31;15.70;99.90
41630;DHT22;27322;49.488;8.480;2023-03-23T15:48:52;15.70;99.90
41630;DHT22;27322;49.488;8.480;2023-03-23T15:51:21;15.70;99.90
41630;DHT22;27322;49.488;8.480;2023-03-23T15:53:50;15.70;99.90
41630;DHT22;27322;49.488;8.480;2023-03-23T15:56:16;15.70;99.90
41630;DHT22;27322;49.488;8.480;2023-03-23T15:58:42;15.70;99.90
41630;DHT22;27322;49.488;8.480;2023-03-23T16:01:13;15.70;99.90
41630;DHT22;27322;49.488;8.480;2023-03-23T16:03:49;15.70;99.90
41630;DHT22;27322;49.488;8.480;2023-03-23T16:06:18;15.70;99.90
41630;DHT22;27322;49.488;8.480;2023-03-23T16:08:44;15.70;99.90
41630;DHT22;27322;49.488;8.480;2023-03-23T16:11:16;15.70;99.90
41630;DHT22;27322;49.488;8.480;2023-03-23T16:13:42;15.70;99.90
41630;DHT22;27322;49.488;8.480;2023-03-23T16:16:35;15.70;99.90
41630;DHT22;27322;49.488;8.480;2023-03-23T16:19:01;15.70;99.90
41630;DHT22;27322;49.488;8.480;2023-03-23T16:21:27;15.70;99.90
41630;DHT22;27322;49.488;8.480;2023-03-23T16:23:55;15.70;99.90
41630;DHT22;27322;49.488;8.480;2023-03-23T16:26:20;15.70;99.90
41630;DHT22;27322;49.488;8.480;2023-03-23T16:28:46;15.70;99.90
41630;DHT22;27322;49.488;8.480;2023-03-23T16:31:12;15.70;99.90
41630;DHT22;27322;49.488;8.480;2023-03-23T16:33:38;15.70;99.90
41630;DHT22;27322;49.488;8.480;2023-03-23T16:36:04;15.70;99.90
41630;DHT22;27322;49.488;8.480;2023-03-23T16:38:29;15.70;99.90
41630;DHT22;27322;49.488;8.480;2023-03-23T16:40:55;15.70;99.90
41630;DHT22;27322;49.488;8.480;2023-03-23T16:43:21;15.60;99.90
41630;DHT22;27322;49.488;8.480;2023-03-23T16:45:47;15.60;99.90
41630;DHT22;27322;49.488;8.480;2023-03-23T16:48:14;15.60;99.90
41630;DHT22;27322;49.488;8.480;2023-03-23T16:50:41;15.60;99.90
41630;DHT22;27322;49.488;8.480;2023-03-23T16:53:08;15.60;99.90
41630;DHT22;27322;49.488;8.480;2023-03-23T16:55:35;15.60;99.90
41630;DHT22;27322;49.488;8.480;2023-03-23T16:58:00;15.50;99.90
41630;DHT22;27322;49.488;8.480;2023-03-23T17:00:27;15.50;99.90
41630;DHT22;27322;49.488;8.480;2023-03-23T17:02:53;15.50;99.90
41630;DHT22;27322;49.488;8.480;2023-03-23T17:05:26;15.50;99.90
41630;DHT22;27322;49.488;8.480;2023-03-23T17:07:52;15.50;99.90
41630;DHT22;27322;49.488;8.480;2023-03-23T17:10:23;15.50;99.90
41630;DHT22;27322;49.488;8.480;2023-03-23T17:12:49;15.50;99.90
41630;DHT22;27322;49.488;8.480;2023-03-23T17:15:15;15.40;99.90
41630;DHT22;27322;49.488;8.480;2023-03-23T17:17:41;15.40;99.90
41630;DHT22;27322;49.488;8.480;2023-03-23T17:20:07;15.50;99.90
41630;DHT22;27322;49.488;8.480;2023-03-23T17:22:35;15.40;99.90
41630;DHT22;27322;49.488;8.480;2023-03-23T17:25:00;15.40;99.90
41630;DHT22;27322;49.488;8.480;2023-03-23T17:27:26;15.40;99.90
41630;DHT22;27322;49.488;8.480;2023-03-23T17:29:52;15.40;99.90